createdAt,value
2023-01-03T00:00:14.571Z,100.00
2023-01-03T00:03:17.533Z,100.00
2023-01-03T00:06:21.357Z,100.00
2023-01-03T00:09:23.889Z,100.00
2023-01-03T00:12:30.476Z,100.00
2023-01-03T00:15:34.106Z,100.00
2023-01-03T00:18:35.753Z,100.00
2023-01-03T00:21:38.715Z,100.00
2023-01-03T00:24:40.419Z,100.00
2023-01-03T00:27:42.795Z,100.00
2023-01-03T00:30:44.481Z,100.00
2023-01-03T00:33:46.321Z,100.00
2023-01-03T00:36:49.638Z,100.00
2023-01-03T00:39:51.209Z,100.00
2023-01-03T00:43:11.544Z,100.00
2023-01-03T00:46:13.971Z,100.00
2023-01-03T00:49:16.950Z,100.00
2023-01-03T00:52:19.829Z,100.00
2023-01-03T00:55:21.390Z,100.00
2023-01-03T00:58:23.428Z,100.00
2023-01-03T01:01:26.379Z,100.00
2023-01-03T01:04:29.119Z,100.00
2023-01-03T01:07:32.339Z,100.00
2023-01-03T01:10:33.989Z,100.00
2023-01-03T01:13:35.797Z,100.00
2023-01-03T01:16:37.387Z,100.00
2023-01-03T01:19:40.801Z,100.00
2023-01-03T01:22:44.069Z,100.00
2023-01-03T01:25:45.630Z,100.00
2023-01-03T01:28:47.520Z,100.00
2023-01-03T01:31:49.563Z,100.00
2023-01-03T01:34:51.193Z,100.00
2023-01-03T01:37:54.048Z,100.00
2023-01-03T01:40:55.555Z,100.00
2023-01-03T01:44:16.409Z,100.00
2023-01-03T01:47:21.381Z,100.00
2023-01-03T01:50:24.849Z,100.00
2023-01-03T01:53:29.635Z,100.00
2023-01-03T01:56:33.478Z,100.00
2023-01-03T01:59:35.454Z,100.00
2023-01-03T02:02:37.323Z,100.00
2023-01-03T02:05:41.612Z,100.00
2023-01-03T02:08:44.636Z,100.00
2023-01-03T02:11:51.262Z,100.00
2023-01-03T02:14:59.278Z,100.00
2023-01-03T02:18:08.285Z,100.00
2023-01-03T02:21:22.065Z,100.00
2023-01-03T02:24:34.246Z,100.00
2023-01-03T02:27:50.570Z,100.00
2023-01-03T02:30:57.275Z,100.00
2023-01-03T02:34:02.948Z,100.00
2023-01-03T02:37:11.479Z,100.00
2023-01-03T02:40:17.382Z,100.00
2023-01-03T02:43:22.128Z,100.00
2023-01-03T02:46:27.155Z,100.00
2023-01-03T02:49:31.673Z,100.00
2023-01-03T02:52:33.962Z,100.00
2023-01-03T02:55:37.937Z,100.00
2023-01-03T02:58:40.459Z,100.00
2023-01-03T03:01:45.292Z,100.00
2023-01-03T03:04:49.209Z,100.00
2023-01-03T03:07:50.806Z,100.00
2023-01-03T03:11:11.751Z,100.00
2023-01-03T03:14:17.887Z,100.00
2023-01-03T03:17:24.187Z,100.00
2023-01-03T03:20:44.438Z,100.00
2023-01-03T03:24:06.241Z,100.00
2023-01-03T03:27:30.165Z,100.00
2023-01-03T03:30:33.422Z,100.00
2023-01-03T03:33:39.580Z,100.00
2023-01-03T03:36:45.483Z,100.00
2023-01-03T03:40:06.335Z,100.00
2023-01-03T03:43:30.054Z,100.00
2023-01-03T03:46:33.932Z,100.00
2023-01-03T03:49:38.252Z,100.00
2023-01-03T03:52:43.066Z,100.00
2023-01-03T03:55:47.737Z,100.00
2023-01-03T03:58:51.468Z,100.00
2023-01-03T04:01:54.418Z,100.00
2023-01-03T04:04:59.184Z,100.00
2023-01-03T04:08:00.779Z,100.00
2023-01-03T04:11:08.368Z,100.00
2023-01-03T04:14:10.286Z,100.00
2023-01-03T04:17:12.272Z,100.00
2023-01-03T04:20:15.276Z,100.00
2023-01-03T04:23:16.780Z,100.00
2023-01-03T04:26:18.558Z,100.00
2023-01-03T04:29:20.054Z,100.00
2023-01-03T04:32:21.597Z,100.00
2023-01-03T04:35:24.500Z,100.00
2023-01-03T04:38:26.097Z,100.00
2023-01-03T04:41:27.732Z,100.00
2023-01-03T04:44:29.317Z,100.00
2023-01-03T04:47:30.807Z,100.00
2023-01-03T04:50:33.909Z,100.00
2023-01-03T04:53:35.458Z,100.00
2023-01-03T04:56:38.202Z,100.00
2023-01-03T04:59:39.747Z,100.00
2023-01-03T05:02:41.339Z,100.00
2023-01-03T05:05:44.746Z,100.00
2023-01-03T05:08:47.249Z,100.00
2023-01-03T05:11:48.969Z,100.00
2023-01-03T05:14:50.560Z,100.00
2023-01-03T05:17:52.124Z,100.00
2023-01-03T05:21:14.593Z,100.00
2023-01-03T05:24:34.742Z,100.00
2023-01-03T05:27:36.237Z,100.00
2023-01-03T05:30:37.834Z,100.00
2023-01-03T05:33:40.020Z,100.00
2023-01-03T05:36:43.097Z,100.00
2023-01-03T05:39:44.601Z,100.00
2023-01-03T05:42:46.138Z,100.00
2023-01-03T05:45:49.003Z,100.00
2023-01-03T05:48:50.629Z,100.00
2023-01-03T05:51:53.635Z,100.00
2023-01-03T05:54:55.215Z,100.00
2023-01-03T05:57:56.746Z,100.00
2023-01-03T06:00:58.300Z,100.00
2023-01-03T06:03:59.965Z,100.00
2023-01-03T06:07:02.913Z,100.00
2023-01-03T06:10:05.392Z,100.00
2023-01-03T06:13:07.341Z,100.00
2023-01-03T06:16:28.694Z,100.00
2023-01-03T06:19:30.981Z,100.00
2023-01-03T06:22:34.170Z,100.00
2023-01-03T06:25:35.816Z,100.00
2023-01-03T06:28:39.319Z,100.00
2023-01-03T06:31:41.706Z,100.00
2023-01-03T06:34:43.421Z,100.00
2023-01-03T06:37:46.390Z,100.00
2023-01-03T06:40:48.196Z,100.00
2023-01-03T06:43:49.741Z,100.00
2023-01-03T06:47:10.364Z,100.00
2023-01-03T06:50:30.676Z,100.00
2023-01-03T06:53:35.917Z,100.00
2023-01-03T06:56:37.486Z,100.00
2023-01-03T06:59:39.199Z,100.00
2023-01-03T07:02:41.008Z,100.00
2023-01-03T07:05:42.661Z,100.00
2023-01-03T07:08:48.366Z,100.00
2023-01-03T07:11:50.806Z,100.00
2023-01-03T07:14:52.363Z,100.00
2023-01-03T07:17:54.792Z,100.00
2023-01-03T07:20:56.276Z,100.00
2023-01-03T07:24:01.870Z,100.00
2023-01-03T07:27:03.744Z,100.00
2023-01-03T07:30:06.150Z,100.00
2023-01-03T07:33:09.218Z,100.00
2023-01-03T07:36:12.380Z,100.00
2023-01-03T07:39:15.415Z,100.00
2023-01-03T07:42:35.570Z,100.00
2023-01-03T07:45:39.267Z,100.00
2023-01-03T07:48:41.410Z,100.00
2023-01-03T07:51:42.989Z,100.00
2023-01-03T07:54:45.859Z,100.00
2023-01-03T07:57:51.873Z,100.00
2023-01-03T08:00:53.417Z,100.00
2023-01-03T08:03:55.068Z,100.00
2023-01-03T08:06:58.224Z,100.00
2023-01-03T08:10:19.802Z,100.00
2023-01-03T08:13:21.575Z,100.00
2023-01-03T08:16:23.325Z,100.00
2023-01-03T08:19:25.036Z,100.00
2023-01-03T08:22:27.539Z,100.00
2023-01-03T08:25:30.824Z,100.00
2023-01-03T08:28:32.949Z,100.00
2023-01-03T08:31:37.669Z,100.00
2023-01-03T08:34:42.404Z,100.00
2023-01-03T08:37:44.701Z,100.00
2023-01-03T08:40:47.843Z,100.00
2023-01-03T08:43:49.603Z,100.00
2023-01-03T08:46:53.338Z,100.00
2023-01-03T08:49:55.368Z,100.00
2023-01-03T08:52:58.510Z,100.00
2023-01-03T08:56:01.523Z,100.00
2023-01-03T08:59:03.417Z,100.00
2023-01-03T09:02:05.122Z,100.00
2023-01-03T09:05:07.769Z,100.00
2023-01-03T09:08:09.289Z,100.00
2023-01-03T09:11:12.433Z,100.00
2023-01-03T09:14:14.421Z,100.00
2023-01-03T09:17:16.379Z,98.44
2023-01-03T09:20:18.924Z,98.77
2023-01-03T09:23:20.550Z,98.46
2023-01-03T09:26:23.422Z,98.35
2023-01-03T09:29:25.086Z,98.18
2023-01-03T09:32:26.705Z,98.34
2023-01-03T09:35:28.664Z,97.82
2023-01-03T09:49:07.574Z,95.16
2023-01-03T09:52:33.658Z,94.95
2023-01-03T09:59:18.324Z,93.76
2023-01-03T10:05:41.388Z,94.06
2023-01-03T10:08:50.580Z,93.96
2023-01-03T10:11:58.799Z,94.22
2023-01-03T10:15:07.156Z,93.31
2023-01-03T10:18:16.869Z,92.94
2023-01-03T10:21:22.795Z,91.73
2023-01-03T10:24:25.293Z,92.62
2023-01-03T10:27:27.896Z,92.01
2023-01-03T10:30:35.084Z,92.82
2023-01-03T10:33:38.775Z,92.20
2023-01-03T10:36:41.655Z,92.07
2023-01-03T10:39:43.190Z,91.40
2023-01-03T10:42:45.544Z,91.00
2023-01-03T10:45:51.790Z,91.03
2023-01-03T10:49:26.825Z,90.37
2023-01-03T10:52:18.521Z,91.42
2023-01-03T10:55:21.788Z,90.46
2023-01-03T10:58:27.986Z,89.66
2023-01-03T11:01:32.486Z,90.31
2023-01-03T11:04:34.832Z,89.11
2023-01-03T11:07:42.556Z,89.33
2023-01-03T11:11:05.040Z,87.53
2023-01-03T11:14:18.849Z,88.79
2023-01-03T11:17:21.429Z,87.51
2023-01-03T11:20:35.777Z,87.73
2023-01-03T11:23:48.438Z,88.15
2023-01-03T11:26:51.280Z,86.07
2023-01-03T11:29:59.353Z,86.74
2023-01-03T11:33:07.619Z,86.31
2023-01-03T11:36:20.958Z,86.14
2023-01-03T11:39:36.355Z,84.74
2023-01-03T11:42:47.000Z,86.22
2023-01-03T11:46:02.465Z,85.36
2023-01-03T11:49:09.831Z,84.81
2023-01-03T11:52:19.673Z,84.42
2023-01-03T11:55:40.041Z,84.26
2023-01-03T11:59:02.259Z,83.58
2023-01-03T12:02:22.692Z,85.14
2023-01-03T12:05:45.520Z,86.48
2023-01-03T12:08:52.662Z,86.39
2023-01-03T12:12:04.514Z,86.96
2023-01-03T12:15:13.553Z,87.92
2023-01-03T12:18:18.742Z,87.94
2023-01-03T12:21:21.872Z,87.76
2023-01-03T12:24:28.005Z,87.29
2023-01-03T12:27:33.056Z,87.47
2023-01-03T12:30:39.808Z,87.97
2023-01-03T12:33:43.075Z,88.07
2023-01-03T12:36:48.750Z,88.13
2023-01-03T12:39:55.246Z,88.05
2023-01-03T12:42:59.981Z,88.43
2023-01-03T12:46:12.673Z,88.50
2023-01-03T12:49:17.350Z,88.99
2023-01-03T12:52:21.028Z,89.30
2023-01-03T12:55:24.928Z,89.55
2023-01-03T12:58:39.733Z,89.93
2023-01-03T13:01:45.202Z,90.12
2023-01-03T13:04:48.946Z,90.49
2023-01-03T13:07:53.547Z,90.20
2023-01-03T13:10:57.947Z,90.43
2023-01-03T13:14:03.656Z,91.30
2023-01-03T13:17:12.342Z,91.44
2023-01-03T13:20:33.304Z,91.95
2023-01-03T13:23:36.311Z,92.88
2023-01-03T13:26:37.870Z,92.97
2023-01-03T13:29:44.672Z,93.22
2023-01-03T13:32:48.034Z,93.94
2023-01-03T13:35:57.858Z,94.46
2023-01-03T13:39:00.292Z,94.70
2023-01-03T13:42:01.895Z,94.94
2023-01-03T13:45:22.389Z,95.02
2023-01-03T13:48:41.997Z,95.22
2023-01-03T13:51:49.155Z,95.90
2023-01-03T13:54:59.783Z,95.74
2023-01-03T13:58:01.816Z,96.01
2023-01-03T14:01:06.465Z,96.23
2023-01-03T14:04:22.990Z,96.17
2023-01-03T14:07:48.063Z,96.90
2023-01-03T14:11:01.177Z,96.89
2023-01-03T14:14:05.785Z,96.45
2023-01-03T14:17:14.805Z,96.85
2023-01-03T14:20:19.315Z,96.81
2023-01-03T14:23:58.450Z,96.63
2023-01-03T14:26:45.918Z,96.88
2023-01-03T14:29:49.737Z,96.81
2023-01-03T14:32:51.509Z,96.83
2023-01-03T14:36:01.019Z,97.22
2023-01-03T14:39:05.260Z,97.22
2023-01-03T14:42:07.675Z,97.20
2023-01-03T14:45:16.647Z,97.29
2023-01-03T14:48:18.465Z,97.24
2023-01-03T14:51:20.128Z,96.77
2023-01-03T14:54:29.841Z,96.77
2023-01-03T14:57:32.081Z,96.49
2023-01-03T15:00:35.683Z,96.32
2023-01-03T15:03:39.577Z,97.09
2023-01-03T15:07:01.384Z,96.72
2023-01-03T15:10:18.138Z,96.67
2023-01-03T15:13:22.873Z,96.86
2023-01-03T15:16:26.903Z,96.91
2023-01-03T15:19:29.925Z,96.67
2023-01-03T15:22:35.913Z,96.64
2023-01-03T15:25:40.724Z,96.31
2023-01-03T15:28:49.123Z,96.50
2023-01-03T15:31:55.674Z,96.56
2023-01-03T15:34:57.301Z,96.92
2023-01-03T15:38:00.126Z,96.65
2023-01-03T15:41:06.582Z,96.89
2023-01-03T15:44:10.158Z,97.11
2023-01-03T15:47:14.097Z,97.39
2023-01-03T15:50:18.916Z,97.05
2023-01-03T15:53:22.301Z,97.34
2023-01-03T15:56:30.135Z,97.61
2023-01-03T15:59:35.666Z,97.70
2023-01-03T16:02:41.631Z,97.73
2023-01-03T16:05:43.812Z,97.41
2023-01-03T16:08:45.449Z,97.41
2023-01-03T16:11:57.202Z,97.37
2023-01-03T16:15:00.242Z,97.41
2023-01-03T16:18:01.869Z,97.40
2023-01-03T16:21:04.473Z,97.04
2023-01-03T16:24:06.089Z,97.09
2023-01-03T16:27:15.433Z,96.88
2023-01-03T16:30:17.355Z,97.38
2023-01-03T16:33:20.369Z,97.04
2023-01-03T16:36:24.835Z,96.62
2023-01-03T16:39:27.073Z,96.89
2023-01-03T16:42:30.026Z,96.65
2023-01-03T16:45:31.716Z,96.68
2023-01-03T16:48:36.856Z,96.65
2023-01-03T16:51:47.229Z,96.82
2023-01-03T16:54:51.373Z,96.70
2023-01-03T16:57:55.410Z,96.42
2023-01-03T17:00:57.614Z,96.67
2023-01-03T17:04:02.610Z,96.78
2023-01-03T17:07:04.525Z,97.12
2023-01-03T17:10:07.396Z,97.06
2023-01-03T17:13:19.559Z,97.49
2023-01-03T17:16:24.346Z,97.42
2023-01-03T17:22:50.388Z,97.88
2023-01-03T17:25:52.224Z,97.92
2023-01-03T17:28:55.532Z,98.00
2023-01-03T17:31:57.238Z,97.53
2023-01-03T17:34:58.826Z,97.76
2023-01-03T17:38:27.343Z,97.62
2023-01-03T17:41:25.369Z,97.21
2023-01-03T17:44:28.529Z,97.58
2023-01-03T17:47:48.731Z,97.71
2023-01-03T17:50:50.402Z,97.69
2023-01-03T17:53:52.381Z,97.75
2023-01-03T17:56:54.772Z,97.68
2023-01-03T17:59:57.772Z,98.17
2023-01-03T18:03:00.866Z,98.27
2023-01-03T18:06:05.424Z,98.57
2023-01-03T18:09:09.847Z,98.48
2023-01-03T18:12:13.188Z,98.81
2023-01-03T18:15:17.299Z,98.73
2023-01-03T18:18:20.904Z,98.96
2023-01-03T18:21:25.886Z,99.10
2023-01-03T18:24:31.225Z,98.89
2023-01-03T18:27:33.035Z,99.41
2023-01-03T18:30:36.033Z,99.04
2023-01-03T18:33:37.721Z,99.43
2023-01-03T18:36:40.169Z,99.45
2023-01-03T18:39:42.444Z,99.42
2023-01-03T18:43:02.800Z,99.23
2023-01-03T18:46:13.056Z,99.60
2023-01-03T18:49:15.070Z,100.00
2023-01-03T18:52:22.415Z,99.90
2023-01-03T18:55:25.435Z,99.83
2023-01-03T18:58:30.351Z,100.00
2023-01-03T19:01:33.614Z,100.00
2023-01-03T19:04:35.445Z,99.79
2023-01-03T19:07:38.912Z,100.00
2023-01-03T19:10:40.496Z,100.00
2023-01-03T19:13:51.632Z,100.00
2023-01-03T19:16:55.028Z,100.00
2023-01-03T19:19:56.611Z,100.00
2023-01-03T19:22:58.251Z,100.00
2023-01-03T19:26:01.400Z,100.00
2023-01-03T19:29:05.273Z,99.96
2023-01-03T19:32:11.909Z,100.00
2023-01-03T19:35:14.451Z,99.68
2023-01-03T19:38:16.051Z,99.42
2023-01-03T19:41:19.004Z,99.90
2023-01-03T19:44:20.696Z,99.49
2023-01-03T19:47:23.572Z,99.40
2023-01-03T19:50:26.085Z,99.29
2023-01-03T19:53:27.718Z,99.13
2023-01-03T19:56:29.285Z,99.22
2023-01-03T19:59:34.248Z,99.10
2023-01-03T20:02:39.236Z,98.81
2023-01-03T20:05:41.263Z,98.34
2023-01-03T20:08:42.769Z,98.32
2023-01-03T20:11:44.994Z,98.70
2023-01-03T20:14:49.361Z,98.16
2023-01-03T20:17:53.160Z,98.15
2023-01-03T20:20:55.847Z,98.28
2023-01-03T20:24:00.131Z,98.29
2023-01-03T20:27:01.774Z,98.19
2023-01-03T20:30:06.415Z,98.58
2023-01-03T20:33:09.417Z,98.70
2023-01-03T20:36:22.253Z,99.46
2023-01-03T20:39:26.099Z,99.55
2023-01-03T20:42:28.433Z,99.36
2023-01-03T20:45:30.811Z,99.92
2023-01-03T20:48:33.957Z,99.99
2023-01-03T20:51:35.632Z,100.00
2023-01-03T20:54:37.092Z,99.95
2023-01-03T20:57:38.723Z,100.00
2023-01-03T21:00:40.440Z,100.00
2023-01-03T21:03:45.615Z,100.00
2023-01-03T21:06:48.762Z,100.00
2023-01-03T21:09:50.386Z,100.00
2023-01-03T21:12:52.237Z,100.00
2023-01-03T21:15:53.882Z,100.00
2023-01-03T21:19:00.815Z,100.00
2023-01-03T21:22:02.419Z,100.00
2023-01-03T21:25:04.178Z,100.00
2023-01-03T21:28:05.878Z,100.00
2023-01-03T21:31:07.774Z,100.00
2023-01-03T21:34:14.370Z,100.00
2023-01-03T21:37:16.026Z,100.00
2023-01-03T21:40:18.720Z,100.00
2023-01-03T21:43:20.209Z,100.00
2023-01-03T21:46:21.820Z,100.00
2023-01-03T21:49:24.760Z,100.00
2023-01-03T21:52:26.300Z,100.00
2023-01-03T21:55:29.785Z,100.00
2023-01-03T21:58:31.307Z,100.00
2023-01-03T22:01:53.029Z,100.00
2023-01-03T22:04:56.005Z,100.00
2023-01-03T22:07:57.706Z,100.00
2023-01-03T22:10:59.218Z,100.00
2023-01-03T22:14:01.243Z,100.00
2023-01-03T22:17:02.786Z,100.00
2023-01-03T22:20:06.944Z,100.00
2023-01-03T22:23:08.483Z,100.00
2023-01-03T22:26:11.864Z,100.00
2023-01-03T22:29:13.416Z,100.00
2023-01-03T22:32:15.304Z,100.00
2023-01-03T22:35:21.061Z,100.00
2023-01-03T22:38:22.625Z,100.00
2023-01-03T22:41:24.149Z,100.00
2023-01-03T22:44:26.066Z,100.00
2023-01-03T22:47:28.245Z,100.00
2023-01-03T22:50:31.631Z,100.00
2023-01-03T22:53:34.182Z,100.00
2023-01-03T22:56:35.768Z,100.00
2023-01-03T22:59:37.461Z,100.00
2023-01-03T23:02:41.890Z,100.00
2023-01-03T23:05:45.366Z,100.00
2023-01-03T23:08:51.400Z,100.00
2023-01-03T23:12:11.562Z,100.00
2023-01-03T23:15:13.120Z,100.00
2023-01-03T23:18:14.780Z,100.00
2023-01-03T23:21:17.726Z,100.00
2023-01-03T23:24:20.351Z,99.88
2023-01-03T23:27:21.905Z,100.00
2023-01-03T23:30:23.499Z,99.61
2023-01-03T23:33:25.247Z,99.99
2023-01-03T23:36:28.391Z,99.83
2023-01-03T23:39:29.967Z,100.00
2023-01-03T23:42:31.547Z,99.76
2023-01-03T23:45:33.177Z,99.90
2023-01-03T23:48:35.104Z,100.00
2023-01-03T23:51:38.214Z,100.00
2023-01-03T23:54:39.753Z,100.00
2023-01-03T23:57:41.505Z,99.94
